Time;durP1;ratioP1;P1;durP2;ratioP2;P2;SDS_P1;SDS_P2;PMS_P1;PMS_P2;Temp;Humidity;BMP_temperature;BMP_pressure;BME280_temperature;BME280_humidity;BME280_pressure;Samples;Min_cycle;Max_cycle;Signal;HPM_P1;HPM_P2
2023/03/19 00:00:03;;;;;;;;;;;;;;;;;;4975924;28;20049;-78
2023/03/19 00:02:31;;;;;;;;;;;;;;;;;;4958916;28;19937;-77
2023/03/19 00:04:57;;;;;;;;;;;;;;;;;;4939228;29;20173;-78
2023/03/19 00:07:22;;;;;;;;;;;;;;;;;;4955493;28;19914;-78
2023/03/19 00:09:48;;;;;;;;;;;;;;;;;;4975108;28;19925;-78
2023/03/19 00:12:13;;;;;;;;;;;;;;;;;;4975703;28;19914;-77
2023/03/19 00:14:39;;;;;;;;;;;;;;;;;;4975475;28;20009;-77
2023/03/19 00:17:05;;;;;;;;;;;;;;;;;;4957880;28;19924;-78
2023/03/19 00:19:31;;;;;;;;;;;;;;;;;;4952660;23;19931;-77
2023/03/19 00:21:57;;;;;;;;;;;;;;;;;;4917544;29;19922;-77
2023/03/19 00:24:22;;;;;;;;;;;;;;;;;;4917323;29;19922;-77
2023/03/19 00:26:48;;;;;;;;;;;;;;;;;;4917415;29;19915;-78
2023/03/19 00:29:13;;;;;;;;;;;;;;;;;;4915965;29;19919;-77
2023/03/19 00:31:39;;;;;;;;;;;;;;;;;;4916201;29;19971;-78
2023/03/19 00:34:04;;;;;;;;;;;;;;;;;;4900551;29;19915;-78
2023/03/19 00:36:30;;;;;;;;;;;;;;;;;;4916096;29;20560;-77
2023/03/19 00:38:56;;;;;;;;;;;;;;;;;;4915552;29;20434;-75
2023/03/19 00:41:21;;;;;;;;;;;;;;;;;;4917425;29;20375;-77
2023/03/19 00:43:48;;;;;;;;;;;;;;;;;;4917087;29;19915;-77
2023/03/19 00:46:13;;;;;;;;;;;;;;;;;;4917039;29;20433;-77
2023/03/19 00:48:42;;;;;;;;;;;;;;;;;;4915891;29;19915;-76
2023/03/19 00:51:07;;;;;;;;;;;;;;;;;;4915888;29;19970;-78
2023/03/19 00:53:33;;;;;;;;;;;;;;;;;;4917419;29;20367;-76
2023/03/19 00:55:58;;;;;;;;;;;;;;;;;;4916043;29;19915;-76
2023/03/19 00:58:23;;;;;;;;;;;;;;;;;;4917108;29;20339;-77
2023/03/19 01:00:50;;;;;;;;;;;;;;;;;;4916040;29;19922;-76
2023/03/19 01:03:16;;;;;;;;;;;;;;;;;;4917260;29;19951;-75
2023/03/19 01:05:41;;;;;;;;;;;;;;;;;;4893242;29;20319;-76
2023/03/19 01:08:07;;;;;;;;;;;;;;;;;;4915599;29;19990;-77
2023/03/19 01:10:32;;;;;;;;;;;;;;;;;;4916365;29;20280;-76
2023/03/19 01:12:58;;;;;;;;;;;;;;;;;;4916571;29;19954;-76
2023/03/19 01:15:23;;;;;;;;;;;;;;;;;;4915409;29;19915;-76
2023/03/19 01:17:48;;;;;;;;;;;;;;;;;;4899585;29;19953;-76
2023/03/19 01:20:17;;;;;;;;;;;;;;;;;;4915169;29;20346;-76
2023/03/19 01:22:42;;;;;;;;;;;;;;;;;;4916377;29;20002;-77
2023/03/19 01:25:08;;;;;;;;;;;;;;;;;;4899418;29;20017;-76
2023/03/19 01:27:34;;;;;;;;;;;;;;;;;;4899513;29;19924;-77
2023/03/19 01:30:00;;;;;;;;;;;;;;;;;;4915175;29;20314;-76
2023/03/19 01:32:52;;;;;;;;;;;;;;;;;;4901189;29;19915;-76
2023/03/19 01:35:40;;;;;;;;;;;;;;;;;;4916345;29;19922;-77
2023/03/19 01:38:06;;;;;;;;;;;;;;;;;;4915069;29;20351;-76
2023/03/19 01:40:32;;;;;;;;;;;;;;;;;;4884073;29;19915;-77
2023/03/19 01:42:58;;;;;;;;;;;;;;;;;;4915107;29;19915;-76
2023/03/19 01:45:46;;;;;;;;;;;;;;;;;;4916171;29;19915;-77
2023/03/19 01:48:39;;;;;;;;;;;;;;;;;;4915139;29;19931;-76
2023/03/19 01:51:08;;;;;;;;;;;;;;;;;;4898624;29;19919;-76
2023/03/19 01:53:59;;;;;;;;;;;;;;;;;;4893413;29;20389;-76
2023/03/19 01:56:45;;;;;;;;;;;;;;;;;;4915091;29;19924;-76
2023/03/19 01:59:25;;;;;;;;;;;;;;;;;;4915030;29;20005;-77
2023/03/19 02:02:04;;;;;;;;;;;;;;;;;;4901347;29;19915;-76
2023/03/19 02:04:29;;;;;;;;;;;;;;;;;;4912729;29;19916;-77
2023/03/19 02:06:55;;;;;;;;;;;;;;;;;;4914837;29;19915;-78
2023/03/19 02:09:20;;;;;;;;;;;;;;;;;;4898562;29;19927;-78
2023/03/19 02:11:45;;;;;;;;;;;;;;;;;;4916000;29;19922;-77
2023/03/19 02:14:12;;;;;;;;;;;;;;;;;;4899506;29;20013;-77
2023/03/19 02:16:37;;;;;;;;;;;;;;;;;;4915223;29;19957;-77
2023/03/19 02:19:02;;;;;;;;;;;;;;;;;;4917089;29;19954;-76
2023/03/19 02:21:28;;;;;;;;;;;;;;;;;;4919812;29;19915;-77
2023/03/19 02:23:54;;;;;;;;;;;;;;;;;;4921736;29;19923;-78
2023/03/19 02:26:29;;;;;;;;;;;;;;;;;;4924486;29;19915;-78
2023/03/19 02:29:00;;;;;;;;;;;;;;;;;;4923994;29;19922;-79
2023/03/19 02:31:30;;;;;;;;;;;;;;;;;;4928967;29;19915;-77
2023/03/19 02:33:55;;;;;;;;;;;;;;;;;;4914555;29;19915;-77
2023/03/19 02:36:21;;;;;;;;;;;;;;;;;;4925172;29;20386;-77
2023/03/19 02:38:46;;;;;;;;;;;;;;;;;;4920564;29;19915;-77
2023/03/19 02:41:12;;;;;;;;;;;;;;;;;;4917513;29;19954;-78
2023/03/19 02:43:38;;;;;;;;;;;;;;;;;;4916036;29;20454;-78
2023/03/19 02:46:04;;;;;;;;;;;;;;;;;;4916956;29;19911;-76
2023/03/19 02:48:29;;;;;;;;;;;;;;;;;;4930422;29;20406;-78
2023/03/19 02:50:55;;;;;;;;;;;;;;;;;;4937261;29;19919;-78
2023/03/19 02:53:20;;;;;;;;;;;;;;;;;;4933933;29;19919;-78
2023/03/19 02:55:46;;;;;;;;;;;;;;;;;;4935434;29;19915;-77
2023/03/19 02:58:11;;;;;;;;;;;;;;;;;;4936250;29;19919;-77
2023/03/19 03:00:37;;;;;;;;;;;;;;;;;;4933709;29;19915;-78
2023/03/19 03:03:02;;;;;;;;;;;;;;;;;;4937393;29;19939;-77
2023/03/19 03:05:27;;;;;;;;;;;;;;;;;;4937390;29;19925;-77
2023/03/19 03:07:53;;;;;;;;;;;;;;;;;;4910806;29;19919;-77
2023/03/19 03:10:18;;;;;;;;;;;;;;;;;;4916432;29;19919;-77
2023/03/19 03:12:45;;;;;;;;;;;;;;;;;;4919289;29;19915;-77
2023/03/19 03:15:10;;;;;;;;;;;;;;;;;;4919127;29;19916;-77
2023/03/19 03:17:36;;;;;;;;;;;;;;;;;;4918914;29;19986;-77
2023/03/19 03:20:02;;;;;;;;;;;;;;;;;;4917612;29;19973;-77
2023/03/19 03:22:28;;;;;;;;;;;;;;;;;;4918766;29;19919;-76
2023/03/19 03:24:53;;;;;;;;;;;;;;;;;;4917608;29;19966;-77
2023/03/19 03:27:19;;;;;;;;;;;;;;;;;;4917724;29;19916;-78
2023/03/19 03:29:44;;;;;;;;;;;;;;;;;;4917356;29;20002;-77
2023/03/19 03:32:10;;;;;;;;;;;;;;;;;;4917691;29;19919;-78
2023/03/19 03:34:35;;;;;;;;;;;;;;;;;;4918477;29;19922;-77
2023/03/19 03:37:01;;;;;;;;;;;;;;;;;;4918663;29;20014;-77
2023/03/19 03:39:27;;;;;;;;;;;;;;;;;;4901498;29;20307;-77
2023/03/19 03:41:52;;;;;;;;;;;;;;;;;;4917280;29;19915;-76
2023/03/19 03:44:18;;;;;;;;;;;;;;;;;;4918530;29;19963;-77
2023/03/19 03:46:43;;;;;;;;;;;;;;;;;;4901610;29;20387;-77
2023/03/19 03:49:09;;;;;;;;;;;;;;;;;;4901251;29;20407;-77
2023/03/19 03:51:34;;;;;;;;;;;;;;;;;;4917157;29;20302;-77
2023/03/19 03:54:00;;;;;;;;;;;;;;;;;;4917023;29;19915;-77
2023/03/19 03:56:25;;;;;;;;;;;;;;;;;;4901370;29;19915;-77
2023/03/19 03:58:51;;;;;;;;;;;;;;;;;;4916887;29;19919;-77
2023/03/19 04:01:16;;;;;;;;;;;;;;;;;;4916937;29;19939;-77
2023/03/19 04:03:45;;;;;;;;;;;;;;;;;;4915417;29;20371;-76
2023/03/19 04:06:10;;;;;;;;;;;;;;;;;;4897689;29;19966;-76
2023/03/19 04:08:36;;;;;;;;;;;;;;;;;;4915770;29;19915;-76
2023/03/19 04:11:02;;;;;;;;;;;;;;;;;;4900615;29;20272;-77
2023/03/19 04:13:28;;;;;;;;;;;;;;;;;;4915904;29;19915;-77
2023/03/19 04:15:54;;;;;;;;;;;;;;;;;;4917504;29;20298;-77
2023/03/19 04:18:20;;;;;;;;;;;;;;;;;;4916531;29;19916;-77
2023/03/19 04:20:47;;;;;;;;;;;;;;;;;;4915641;29;20244;-76
2023/03/19 04:23:13;;;;;;;;;;;;;;;;;;4916670;29;19915;-77
2023/03/19 04:25:40;;;;;;;;;;;;;;;;;;4916341;29;19919;-77
2023/03/19 04:28:05;;;;;;;;;;;;;;;;;;4916458;29;19915;-76
2023/03/19 04:30:31;;;;;;;;;;;;;;;;;;4916282;29;19929;-77
2023/03/19 04:32:56;;;;;;;;;;;;;;;;;;4916138;29;19970;-77
2023/03/19 04:35:22;;;;;;;;;;;;;;;;;;4900361;29;19922;-76
2023/03/19 04:37:47;;;;;;;;;;;;;;;;;;4916345;29;19915;-76
2023/03/19 04:40:15;;;;;;;;;;;;;;;;;;4916087;29;20162;-76
2023/03/19 04:42:43;;;;;;;;;;;;;;;;;;4885202;29;19915;-77
2023/03/19 04:45:20;;;;;;;;;;;;;;;;;;4915970;29;19923;-78
2023/03/19 04:47:46;;;;;;;;;;;;;;;;;;4916227;29;19990;-76
2023/03/19 04:50:12;;;;;;;;;;;;;;;;;;4900266;29;19927;-77
2023/03/19 04:52:39;;;;;;;;;;;;;;;;;;4916079;29;19915;-76
2023/03/19 04:55:04;;;;;;;;;;;;;;;;;;4916154;29;20487;-76
2023/03/19 04:57:38;;;;;;;;;;;;;;;;;;4915985;29;19922;-76
2023/03/19 05:00:03;;;;;;;;;;;;;;;;;;4900341;29;19919;-76
2023/03/19 05:02:29;;;;;;;;;;;;;;;;;;4884485;29;20296;-77
2023/03/19 05:04:55;;;;;;;;;;;;;;;;;;4908638;29;19944;-77
2023/03/19 05:07:20;;;;;;;;;;;;;;;;;;4900288;29;19919;-76
2023/03/19 05:09:46;;;;;;;;;;;;;;;;;;4915611;29;19923;-77
2023/03/19 05:12:13;;;;;;;;;;;;;;;;;;4915692;29;19957;-77
2023/03/19 05:14:46;;;;;;;;;;;;;;;;;;4900868;29;19915;-76
2023/03/19 05:17:20;;;;;;;;;;;;;;;;;;4900295;29;19999;-76
2023/03/19 05:20:08;;;;;;;;;;;;;;;;;;4916489;29;19919;-77
2023/03/19 05:22:34;;;;;;;;;;;;;;;;;;4900124;29;19963;-77
2023/03/19 05:25:00;;;;;;;;;;;;;;;;;;4915513;29;19915;-77
2023/03/19 05:27:26;;;;;;;;;;;;;;;;;;4915773;29;20426;-77
2023/03/19 05:30:00;;;;;;;;;;;;;;;;;;4901222;29;19926;-77
2023/03/19 05:32:49;;;;;;;;;;;;;;;;;;4910642;29;19963;-77
2023/03/19 05:35:24;;;;;;;;;;;;;;;;;;4899495;29;20416;-76
2023/03/19 05:37:50;;;;;;;;;;;;;;;;;;4915560;29;19919;-76
2023/03/19 05:40:16;;;;;;;;;;;;;;;;;;4915378;29;19918;-76
2023/03/19 05:42:43;;;;;;;;;;;;;;;;;;4900037;29;20001;-76
2023/03/19 05:45:10;;;;;;;;;;;;;;;;;;4899734;29;20402;-77
2023/03/19 05:47:42;;;;;;;;;;;;;;;;;;4885589;29;19919;-76
2023/03/19 05:50:07;;;;;;;;;;;;;;;;;;4900074;29;19926;-77
2023/03/19 05:52:32;;;;;;;;;;;;;;;;;;4915870;29;19915;-76
2023/03/19 05:54:59;;;;;;;;;;;;;;;;;;4915806;29;19941;-77
2023/03/19 05:57:36;;;;;;;;;;;;;;;;;;4900402;29;19960;-77
2023/03/19 06:00:15;;;;;;;;;;;;;;;;;;4917458;29;19915;-76
2023/03/19 06:02:41;;;;;;;;;;;;;;;;;;4914866;29;19922;-76
2023/03/19 06:05:30;;;;;;;;;;;;;;;;;;4906286;29;19915;-76
2023/03/19 06:08:10;;;;;;;;;;;;;;;;;;4901666;29;19915;-77
2023/03/19 06:10:52;;;;;;;;;;;;;;;;;;4915242;29;20193;-77
2023/03/19 06:13:17;;;;;;;;;;;;;;;;;;4916721;29;20359;-77
2023/03/19 06:15:51;;;;;;;;;;;;;;;;;;4903391;29;19919;-77
2023/03/19 06:18:52;;;;;;;;;;;;;;;;;;4913495;29;20013;-77
2023/03/19 06:21:18;;;;;;;;;;;;;;;;;;4927066;23;20383;-79
2023/03/19 06:23:44;;;;;;;;;;;;;;;;;;4899038;29;19982;-77
2023/03/19 06:26:12;;;;;;;;;;;;;;;;;;4884066;29;19923;-77
2023/03/19 06:28:51;;;;;;;;;;;;;;;;;;4900758;29;19965;-78
2023/03/19 06:31:16;;;;;;;;;;;;;;;;;;4914623;29;19963;-79
2023/03/19 06:33:51;;;;;;;;;;;;;;;;;;4900357;29;19941;-81
2023/03/19 06:36:16;;;;;;;;;;;;;;;;;;4898878;29;20195;-78
2023/03/19 06:38:42;;;;;;;;;;;;;;;;;;4902459;29;19915;-77
2023/03/19 06:41:07;;;;;;;;;;;;;;;;;;4918496;29;20405;-77
2023/03/19 06:43:35;;;;;;;;;;;;;;;;;;4918725;29;20367;-79
2023/03/19 06:46:01;;;;;;;;;;;;;;;;;;4918356;29;19915;-79
2023/03/19 06:48:26;;;;;;;;;;;;;;;;;;4918492;29;19966;-78
2023/03/19 06:50:52;;;;;;;;;;;;;;;;;;4918372;29;20305;-78
2023/03/19 06:53:17;;;;;;;;;;;;;;;;;;4902535;29;19927;-78
2023/03/19 06:55:42;;;;;;;;;;;;;;;;;;4902580;29;19958;-80
2023/03/19 06:58:08;;;;;;;;;;;;;;;;;;4919683;29;20350;-81
2023/03/19 07:00:33;;;;;;;;;;;;;;;;;;4902965;29;19915;-81
2023/03/19 07:02:59;;;;;;;;;;;;;;;;;;4918312;29;19915;-80
2023/03/19 07:05:24;;;;;;;;;;;;;;;;;;4917972;29;19954;-81
2023/03/19 07:07:50;;;;;;;;;;;;;;;;;;4919420;29;19924;-78
2023/03/19 07:10:15;;;;;;;;;;;;;;;;;;4917578;29;19953;-81
2023/03/19 07:12:41;;;;;;;;;;;;;;;;;;4918385;29;19963;-79
2023/03/19 07:15:09;;;;;;;;;;;;;;;;;;4917927;29;19915;-79
2023/03/19 07:17:34;;;;;;;;;;;;;;;;;;4902342;29;19923;-78
2023/03/19 07:20:00;;;;;;;;;;;;;;;;;;4902040;29;20151;-79
2023/03/19 07:22:25;;;;;;;;;;;;;;;;;;4917967;29;19971;-76
2023/03/19 07:24:51;;;;;;;;;;;;;;;;;;4917537;29;19922;-78
2023/03/19 07:27:16;;;;;;;;;;;;;;;;;;4901771;29;19915;-80
2023/03/19 07:29:42;;;;;;;;;;;;;;;;;;4918789;29;19919;-79
2023/03/19 07:32:07;;;;;;;;;;;;;;;;;;4917746;29;19919;-81
2023/03/19 07:34:33;;;;;;;;;;;;;;;;;;4917440;29;19915;-79
2023/03/19 07:36:58;;;;;;;;;;;;;;;;;;4917173;29;19998;-76
2023/03/19 07:39:23;;;;;;;;;;;;;;;;;;4917464;29;19915;-79
2023/03/19 07:41:49;;;;;;;;;;;;;;;;;;4901771;29;19915;-77
2023/03/19 07:44:14;;;;;;;;;;;;;;;;;;4918976;29;20282;-77
2023/03/19 07:46:40;;;;;;;;;;;;;;;;;;4901629;29;19915;-76
2023/03/19 07:49:06;;;;;;;;;;;;;;;;;;4900760;29;19971;-77
2023/03/19 07:51:31;;;;;;;;;;;;;;;;;;4902379;29;20475;-78
2023/03/19 07:53:57;;;;;;;;;;;;;;;;;;4918692;29;19922;-78
2023/03/19 07:56:22;;;;;;;;;;;;;;;;;;4917451;29;20367;-78
2023/03/19 07:58:48;;;;;;;;;;;;;;;;;;4918429;29;20350;-77
2023/03/19 08:01:14;;;;;;;;;;;;;;;;;;4917171;29;19922;-78
2023/03/19 08:03:39;;;;;;;;;;;;;;;;;;4899430;29;20330;-78
2023/03/19 08:06:05;;;;;;;;;;;;;;;;;;4917074;29;20311;-79
2023/03/19 08:08:33;;;;;;;;;;;;;;;;;;4903715;29;20286;-82
2023/03/19 08:10:59;;;;;;;;;;;;;;;;;;4917791;29;19919;-80
2023/03/19 08:13:24;;;;;;;;;;;;;;;;;;4919245;29;20017;-77
2023/03/19 08:15:51;;;;;;;;;;;;;;;;;;4919839;29;20393;-80
2023/03/19 08:18:16;;;;;;;;;;;;;;;;;;4903782;29;19935;-82
2023/03/19 08:20:44;;;;;;;;;;;;;;;;;;4920115;29;20379;-79
2023/03/19 08:23:10;;;;;;;;;;;;;;;;;;4920690;29;19915;-79
2023/03/19 08:25:36;;;;;;;;;;;;;;;;;;4907576;29;19915;-81
2023/03/19 08:28:01;;;;;;;;;;;;;;;;;;4920001;29;20381;-82
2023/03/19 08:30:27;;;;;;;;;;;;;;;;;;4917506;29;19926;-81
2023/03/19 08:32:52;;;;;;;;;;;;;;;;;;4918419;29;19959;-81
2023/03/19 08:35:21;;;;;;;;;;;;;;;;;;4917873;29;19915;-79
2023/03/19 08:37:46;;;;;;;;;;;;;;;;;;4917679;29;20326;-80
2023/03/19 08:40:11;;;;;;;;;;;;;;;;;;4918101;29;19962;-78
2023/03/19 08:42:41;;;;;;;;;;;;;;;;;;4901152;29;19919;-79
2023/03/19 08:45:06;;;;;;;;;;;;;;;;;;4918100;29;20356;-77
2023/03/19 08:47:32;;;;;;;;;;;;;;;;;;4903081;29;19911;-81
2023/03/19 08:49:58;;;;;;;;;;;;;;;;;;4915916;29;20010;-79
2023/03/19 08:52:23;;;;;;;;;;;;;;;;;;4900318;29;20278;-79
2023/03/19 08:57:59;;;;;;;;;;;;;;;;;;4917808;29;19922;-80
2023/03/19 09:00:26;;;;;;;;;;;;;;;;;;4915761;29;19915;-80
2023/03/19 09:03:07;;;;;;;;;;;;;;;;;;4914932;29;19915;-80
2023/03/19 09:05:35;;;;;;;;;;;;;;;;;;4915755;29;19964;-79
2023/03/19 09:10:55;;;;;;;;;;;;;;;;;;4911297;29;19919;-77
2023/03/19 09:13:24;;;;;;;;;;;;;;;;;;4917961;29;19915;-79
2023/03/19 09:15:55;;;;;;;;;;;;;;;;;;4918137;29;19922;-78
2023/03/19 09:18:24;;;;;;;;;;;;;;;;;;4917808;29;19947;-79
2023/03/19 09:20:50;;;;;;;;;;;;;;;;;;4916019;29;19966;-80
2023/03/19 09:23:28;;;;;;;;;;;;;;;;;;4901937;29;19915;-78
2023/03/19 09:25:54;;;;;;;;;;;;;;;;;;4918836;29;19962;-80
2023/03/19 09:28:36;;;;;;;;;;;;;;;;;;4915205;29;20014;-77
2023/03/19 09:31:05;;;;;;;;;;;;;;;;;;4905925;29;20383;-79
2023/03/19 09:33:40;;;;;;;;;;;;;;;;;;4897655;29;19916;-78
2023/03/19 09:36:05;;;;;;;;;;;;;;;;;;4897422;29;20359;-77
2023/03/19 09:38:34;;;;;;;;;;;;;;;;;;4897160;29;19955;-76
2023/03/19 09:41:06;;;;;;;;;;;;;;;;;;4896696;29;20034;-76
2023/03/19 09:43:49;;;;;;;;;;;;;;;;;;4896977;29;19916;-76
2023/03/19 09:46:18;;;;;;;;;;;;;;;;;;4877661;29;20300;-77
2023/03/19 09:48:50;;;;;;;;;;;;;;;;;;4899942;29;19961;-76
2023/03/19 09:51:19;;;;;;;;;;;;;;;;;;4895872;29;19927;-77
2023/03/19 09:53:46;;;;;;;;;;;;;;;;;;4881896;29;19912;-76
2023/03/19 09:59:05;;;;;;;;;;;;;;;;;;4878370;29;19916;-78
2023/03/19 10:01:33;;;;;;;;;;;;;;;;;;4878425;29;19923;-77
2023/03/19 10:04:01;;;;;;;;;;;;;;;;;;4898141;29;20061;-77
2023/03/19 10:06:31;;;;;;;;;;;;;;;;;;4896829;29;20002;-76
2023/03/19 10:11:47;;;;;;;;;;;;;;;;;;4889606;29;19926;-76
2023/03/19 10:14:13;;;;;;;;;;;;;;;;;;4894132;29;19916;-76
2023/03/19 10:16:38;;;;;;;;;;;;;;;;;;4895561;29;20418;-77
2023/03/19 10:19:05;;;;;;;;;;;;;;;;;;4916395;29;20010;-78
2023/03/19 10:21:31;;;;;;;;;;;;;;;;;;4884566;29;20272;-78
2023/03/19 10:24:07;;;;;;;;;;;;;;;;;;4914695;29;20387;-77
2023/03/19 10:26:35;;;;;;;;;;;;;;;;;;4914921;29;19922;-75
2023/03/19 10:29:01;;;;;;;;;;;;;;;;;;4899547;29;19916;-76
2023/03/19 10:31:27;;;;;;;;;;;;;;;;;;4900028;29;20305;-77
2023/03/19 10:33:52;;;;;;;;;;;;;;;;;;4915401;29;19915;-76
2023/03/19 10:36:17;;;;;;;;;;;;;;;;;;4915162;29;19920;-76
2023/03/19 10:38:43;;;;;;;;;;;;;;;;;;4915360;29;19963;-77
2023/03/19 10:41:09;;;;;;;;;;;;;;;;;;4901037;29;19931;-79
2023/03/19 10:43:34;;;;;;;;;;;;;;;;;;4915904;29;19994;-78
2023/03/19 10:46:00;;;;;;;;;;;;;;;;;;4915749;29;20400;-78
2023/03/19 10:48:25;;;;;;;;;;;;;;;;;;4899456;29;19916;-79
2023/03/19 10:50:51;;;;;;;;;;;;;;;;;;4883641;29;19920;-78
2023/03/19 10:53:16;;;;;;;;;;;;;;;;;;4899958;29;19951;-79
2023/03/19 10:55:42;;;;;;;;;;;;;;;;;;4915057;29;19962;-80
2023/03/19 10:58:07;;;;;;;;;;;;;;;;;;4900822;29;19967;-80
2023/03/19 11:00:34;;;;;;;;;;;;;;;;;;4900746;29;19916;-78
2023/03/19 11:03:03;;;;;;;;;;;;;;;;;;4915467;29;19982;-78
2023/03/19 11:05:28;;;;;;;;;;;;;;;;;;4901216;29;19935;-78
2023/03/19 11:07:54;;;;;;;;;;;;;;;;;;4902356;29;19915;-80
2023/03/19 11:10:19;;;;;;;;;;;;;;;;;;4902448;29;19944;-79
2023/03/19 11:12:45;;;;;;;;;;;;;;;;;;4907401;29;19922;-78
2023/03/19 11:15:10;;;;;;;;;;;;;;;;;;4905730;29;19915;-78
2023/03/19 11:17:36;;;;;;;;;;;;;;;;;;4891787;29;19915;-80
2023/03/19 11:20:01;;;;;;;;;;;;;;;;;;4924103;29;19927;-80
2023/03/19 11:22:27;;;;;;;;;;;;;;;;;;4906039;29;19915;-80
2023/03/19 11:24:52;;;;;;;;;;;;;;;;;;4922599;29;20299;-79
2023/03/19 11:27:18;;;;;;;;;;;;;;;;;;4920372;29;19919;-78
2023/03/19 11:29:44;;;;;;;;;;;;;;;;;;4896220;29;19927;-80
2023/03/19 11:32:09;;;;;;;;;;;;;;;;;;4907467;29;19991;-78
2023/03/19 11:34:35;;;;;;;;;;;;;;;;;;4910212;29;19915;-77
2023/03/19 11:37:00;;;;;;;;;;;;;;;;;;4920395;29;19998;-80
2023/03/19 11:39:27;;;;;;;;;;;;;;;;;;4903539;29;19915;-77
2023/03/19 11:41:52;;;;;;;;;;;;;;;;;;4903133;29;19915;-78
2023/03/19 11:44:18;;;;;;;;;;;;;;;;;;4888119;29;20030;-77
2023/03/19 11:46:45;;;;;;;;;;;;;;;;;;4918886;29;20014;-79
2023/03/19 11:49:11;;;;;;;;;;;;;;;;;;4921174;29;19915;-80
2023/03/19 11:51:36;;;;;;;;;;;;;;;;;;4920618;29;20335;-78
2023/03/19 11:54:02;;;;;;;;;;;;;;;;;;4906949;29;19922;-77
2023/03/19 11:56:28;;;;;;;;;;;;;;;;;;4919192;29;19995;-75
2023/03/19 11:58:56;;;;;;;;;;;;;;;;;;4919628;29;19926;-76
2023/03/19 12:01:21;;;;;;;;;;;;;;;;;;4920508;29;19930;-78
2023/03/19 12:03:47;;;;;;;;;;;;;;;;;;4920605;29;19911;-78
2023/03/19 12:06:13;;;;;;;;;;;;;;;;;;4882719;29;19922;-78
2023/03/19 12:08:38;;;;;;;;;;;;;;;;;;4901539;29;19918;-78
2023/03/19 12:11:04;;;;;;;;;;;;;;;;;;4916784;29;20318;-78
2023/03/19 12:13:29;;;;;;;;;;;;;;;;;;4900916;29;20206;-77
2023/03/19 12:15:55;;;;;;;;;;;;;;;;;;4900660;29;20282;-77
2023/03/19 12:18:21;;;;;;;;;;;;;;;;;;4900722;29;19995;-78
2023/03/19 12:20:46;;;;;;;;;;;;;;;;;;4932018;23;19933;-79
2023/03/19 12:23:12;;;;;;;;;;;;;;;;;;4957982;28;19993;-79
2023/03/19 12:25:37;;;;;;;;;;;;;;;;;;4922957;29;20374;-78
2023/03/19 12:28:03;;;;;;;;;;;;;;;;;;4944476;28;19921;-78
2023/03/19 12:30:28;;;;;;;;;;;;;;;;;;4969170;28;20001;-79
2023/03/19 12:32:57;;;;;;;;;;;;;;;;;;4923983;29;19921;-80
2023/03/19 12:35:28;;;;;;;;;;;;;;;;;;4938033;29;20374;-77
2023/03/19 12:37:54;;;;;;;;;;;;;;;;;;4956024;29;19925;-80
2023/03/19 12:40:20;;;;;;;;;;;;;;;;;;4923478;29;19915;-82
2023/03/19 12:42:45;;;;;;;;;;;;;;;;;;4955436;29;19958;-79
2023/03/19 12:45:11;;;;;;;;;;;;;;;;;;4937222;29;19914;-80
2023/03/19 12:47:37;;;;;;;;;;;;;;;;;;4956255;29;20005;-79
2023/03/19 12:50:03;;;;;;;;;;;;;;;;;;4958135;29;19919;-79
2023/03/19 12:52:33;;;;;;;;;;;;;;;;;;4955910;29;19962;-79
2023/03/19 12:55:02;;;;;;;;;;;;;;;;;;4956367;29;19918;-79
2023/03/19 12:57:27;;;;;;;;;;;;;;;;;;4956599;29;20378;-80
2023/03/19 12:59:53;;;;;;;;;;;;;;;;;;4955773;29;19922;-78
2023/03/19 13:02:21;;;;;;;;;;;;;;;;;;4958025;28;19961;-78
2023/03/19 13:04:49;;;;;;;;;;;;;;;;;;4955297;29;19934;-78
2023/03/19 13:07:15;;;;;;;;;;;;;;;;;;4955775;29;19915;-79
2023/03/19 13:09:40;;;;;;;;;;;;;;;;;;4955406;29;19981;-77
2023/03/19 13:12:09;;;;;;;;;;;;;;;;;;4938082;29;20017;-79
2023/03/19 13:14:41;;;;;;;;;;;;;;;;;;4954776;28;19968;-79
2023/03/19 13:17:07;;;;;;;;;;;;;;;;;;4954269;29;19914;-80
2023/03/19 13:19:34;;;;;;;;;;;;;;;;;;4937870;29;19922;-79
2023/03/19 13:21:59;;;;;;;;;;;;;;;;;;4922179;29;19918;-79
2023/03/19 13:24:28;;;;;;;;;;;;;;;;;;4955138;29;20374;-79
2023/03/19 13:26:53;;;;;;;;;;;;;;;;;;4954023;29;19919;-78
2023/03/19 13:29:19;;;;;;;;;;;;;;;;;;4955513;29;20411;-80
2023/03/19 13:31:47;;;;;;;;;;;;;;;;;;4922716;29;19965;-79
2023/03/19 13:34:12;;;;;;;;;;;;;;;;;;4938573;29;19914;-79
2023/03/19 13:36:38;;;;;;;;;;;;;;;;;;4939456;29;19923;-79
2023/03/19 13:39:03;;;;;;;;;;;;;;;;;;4948062;29;19981;-81
2023/03/19 13:41:29;;;;;;;;;;;;;;;;;;4953349;29;19915;-78
2023/03/19 13:43:54;;;;;;;;;;;;;;;;;;4973498;29;19921;-81
2023/03/19 13:46:21;;;;;;;;;;;;;;;;;;4956612;29;20278;-79
2023/03/19 13:48:47;;;;;;;;;;;;;;;;;;4940081;29;19921;-78
2023/03/19 13:51:12;;;;;;;;;;;;;;;;;;4934660;29;19918;-79
2023/03/19 13:53:38;;;;;;;;;;;;;;;;;;4956393;29;19937;-80
2023/03/19 13:56:03;;;;;;;;;;;;;;;;;;4949093;29;19981;-79
2023/03/19 14:01:13;;;;;;;;;;;;;;;;;;4938239;29;19914;-79
2023/03/19 14:03:38;;;;;;;;;;;;;;;;;;4969768;28;19921;-79
2023/03/19 14:06:04;;;;;;;;;;;;;;;;;;4954578;29;19914;-79
2023/03/19 14:08:30;;;;;;;;;;;;;;;;;;4953988;29;19941;-79
2023/03/19 14:10:55;;;;;;;;;;;;;;;;;;4937663;29;19919;-79
2023/03/19 14:13:21;;;;;;;;;;;;;;;;;;4921785;29;19915;-79
2023/03/19 14:15:46;;;;;;;;;;;;;;;;;;4921344;29;20009;-79
2023/03/19 14:18:12;;;;;;;;;;;;;;;;;;4937700;29;20317;-79
2023/03/19 14:20:37;;;;;;;;;;;;;;;;;;4955063;29;20390;-79
2023/03/19 14:23:03;;;;;;;;;;;;;;;;;;4921869;29;19918;-78
2023/03/19 14:25:28;;;;;;;;;;;;;;;;;;4952022;29;19911;-78
2023/03/19 14:27:54;;;;;;;;;;;;;;;;;;4937131;29;19918;-79
2023/03/19 14:30:19;;;;;;;;;;;;;;;;;;4937179;29;19961;-79
2023/03/19 14:32:46;;;;;;;;;;;;;;;;;;4954635;29;19921;-79
2023/03/19 14:35:12;;;;;;;;;;;;;;;;;;4954075;29;20038;-77
2023/03/19 14:37:38;;;;;;;;;;;;;;;;;;4937530;29;20383;-79
2023/03/19 14:40:03;;;;;;;;;;;;;;;;;;4937199;28;19925;-78
2023/03/19 14:42:29;;;;;;;;;;;;;;;;;;4953756;29;19915;-78
2023/03/19 14:44:54;;;;;;;;;;;;;;;;;;4953903;29;20037;-78
2023/03/19 14:47:20;;;;;;;;;;;;;;;;;;4969216;28;19914;-81
2023/03/19 14:49:45;;;;;;;;;;;;;;;;;;4953885;29;20372;-77
2023/03/19 14:52:10;;;;;;;;;;;;;;;;;;4954301;29;20019;-77
2023/03/19 14:54:36;;;;;;;;;;;;;;;;;;4936759;29;19965;-76
2023/03/19 14:57:01;;;;;;;;;;;;;;;;;;4936281;29;19930;-75
2023/03/19 14:59:27;;;;;;;;;;;;;;;;;;4955540;28;19966;-77
2023/03/19 15:01:52;;;;;;;;;;;;;;;;;;4936737;29;19922;-77
2023/03/19 15:04:17;;;;;;;;;;;;;;;;;;4937893;29;19915;-77
2023/03/19 15:06:43;;;;;;;;;;;;;;;;;;4920576;29;19915;-75
2023/03/19 15:09:08;;;;;;;;;;;;;;;;;;4937900;29;19921;-77
2023/03/19 15:11:33;;;;;;;;;;;;;;;;;;4920458;29;19925;-77
2023/03/19 15:13:59;;;;;;;;;;;;;;;;;;4940778;29;19914;-77
2023/03/19 15:16:25;;;;;;;;;;;;;;;;;;4938354;29;19953;-77
2023/03/19 15:18:50;;;;;;;;;;;;;;;;;;4955353;29;19914;-78
2023/03/19 15:21:16;;;;;;;;;;;;;;;;;;4938178;29;19919;-77
2023/03/19 15:23:41;;;;;;;;;;;;;;;;;;4919694;29;20006;-78
2023/03/19 15:26:10;;;;;;;;;;;;;;;;;;4939911;29;19965;-78
2023/03/19 15:28:35;;;;;;;;;;;;;;;;;;4957191;29;19914;-78
2023/03/19 15:31:01;;;;;;;;;;;;;;;;;;4939617;29;20401;-78
2023/03/19 15:33:26;;;;;;;;;;;;;;;;;;4939549;29;20264;-79
2023/03/19 15:35:52;;;;;;;;;;;;;;;;;;4939230;29;20306;-77
2023/03/19 15:38:17;;;;;;;;;;;;;;;;;;4955473;29;19922;-77
2023/03/19 15:40:43;;;;;;;;;;;;;;;;;;4939811;29;20465;-76
2023/03/19 15:43:08;;;;;;;;;;;;;;;;;;4956852;29;19914;-77
2023/03/19 15:45:34;;;;;;;;;;;;;;;;;;4955490;29;19962;-77
2023/03/19 15:47:59;;;;;;;;;;;;;;;;;;4955276;29;20282;-77
2023/03/19 15:50:24;;;;;;;;;;;;;;;;;;4956329;28;20389;-76
2023/03/19 15:52:50;;;;;;;;;;;;;;;;;;4939277;29;19914;-78
2023/03/19 15:55:15;;;;;;;;;;;;;;;;;;4956075;29;19915;-78
2023/03/19 15:57:41;;;;;;;;;;;;;;;;;;4956531;29;19940;-80
2023/03/19 16:00:08;;;;;;;;;;;;;;;;;;4960677;28;20350;-83
2023/03/19 16:02:37;;;;;;;;;;;;;;;;;;4945029;29;20389;-80
2023/03/19 16:05:03;;;;;;;;;;;;;;;;;;4955939;29;19915;-77
2023/03/19 16:07:28;;;;;;;;;;;;;;;;;;4956072;29;20267;-78
2023/03/19 16:09:53;;;;;;;;;;;;;;;;;;4954918;28;19926;-78
2023/03/19 16:12:19;;;;;;;;;;;;;;;;;;4929439;29;19914;-81
2023/03/19 16:14:44;;;;;;;;;;;;;;;;;;4963105;28;19914;-80
2023/03/19 16:17:10;;;;;;;;;;;;;;;;;;4939536;29;20309;-80
2023/03/19 16:19:35;;;;;;;;;;;;;;;;;;4956307;29;19914;-81
2023/03/19 16:22:01;;;;;;;;;;;;;;;;;;4956058;28;20314;-81
2023/03/19 16:24:29;;;;;;;;;;;;;;;;;;4956017;29;19914;-81
2023/03/19 16:26:55;;;;;;;;;;;;;;;;;;4935412;29;19915;-81
2023/03/19 16:29:20;;;;;;;;;;;;;;;;;;4936414;29;19933;-83
2023/03/19 16:31:46;;;;;;;;;;;;;;;;;;4926171;29;20409;-81
2023/03/19 16:34:11;;;;;;;;;;;;;;;;;;4938612;29;20378;-80
2023/03/19 16:36:36;;;;;;;;;;;;;;;;;;4922798;29;20457;-80
2023/03/19 16:39:02;;;;;;;;;;;;;;;;;;4922534;29;19915;-81
2023/03/19 16:41:27;;;;;;;;;;;;;;;;;;4938430;29;20109;-83
2023/03/19 16:43:53;;;;;;;;;;;;;;;;;;4955543;29;19962;-80
2023/03/19 16:46:19;;;;;;;;;;;;;;;;;;4938125;29;19921;-81
2023/03/19 16:48:44;;;;;;;;;;;;;;;;;;4922642;29;19914;-81
2023/03/19 16:51:10;;;;;;;;;;;;;;;;;;4938680;29;19919;-80
2023/03/19 16:53:35;;;;;;;;;;;;;;;;;;4955656;29;20306;-81
2023/03/19 16:56:02;;;;;;;;;;;;;;;;;;4938104;29;19914;-81
2023/03/19 16:58:28;;;;;;;;;;;;;;;;;;4955895;29;19915;-81